Detall de PIREP

Printer-friendly versionPDF version

[2015/04/29 15:43:00]
Flight IATA:CT2303
Pilot Number:012
Company ICAO:CAT
Aircraft Type:B753/E
PAX:243
Departing Airport: LIBR
Destination Airport: LIEA
Alternate Airport:LIEO
Online: VATSIM
Route:ROBOT UL995 LUXIL UM742 SOR UM620 POKAV UM603 MOROB
Flight Level:F340
No Slew and time accel
No pause
Crash detect
Detect pilot in Cockpit between each 30 and 45 minutes
15:43 Zero fuel Weight: 197444 Lbs, Fuel Weight: 22244 Lbs
15:43 VATSIM:LIBR 291515Z 33009KT CAVOK 18/11 Q1017 NOSIG
15:43 VATSIM:LIEA 291520Z 29006KT 250V330 9999 SCT035 17/10 Q1020
16:00 Parking Brakes off
16:04 Take-off
16:04 Take off Weight: 218816 Lbs
16:04 Wind: 326º @ 008 Knots Heading: 316º
16:04 POS N40º 39´ 58´´ E017º 56´ 14´´
16:04 Gear Up: 188 Knots
16:04 Flaps:2 at 188 Knots
16:05 Flaps:1 at 211 Knots
16:05 Flaps:0 at 216 Knots
16:17 TOC
16:17 Fuel Weight: 17376 Lb
16:19 Wind:268º@049 Knots Heading: 263º Ground Speed: 414 Knots Altitude 34084 ft
16:34 Wind:253º@029 Knots Heading: 277º Ground Speed: 435 Knots Altitude 34117 ft
16:49 Wind:237º@029 Knots Heading: 271º Ground Speed: 443 Knots Altitude 34097 ft
16:52 TOD
16:52 Fuel Weight: 12595 Lb
17:04 Wind:257º@020 Knots Heading: 264º Ground Speed: 322 Knots Altitude 11328 ft
17:12 Flaps:1 at 217 Knots
17:14 Flaps:2 at 191 Knots
17:14 Gear Down: 190 Knots
17:15 Flaps:3 at 184 Knots
17:16 Flaps:4 at 163 Knots
17:16 Flaps:5 at 149 Knots
17:16 Flaps:6 at 147 Knots
17:18 TouchDown:Rate -232 ft/min Speed: 144 Knots
17:19 Wind:294º@004 Knots Heading: 205º Ground Speed: 126 Knots Altitude 098 ft
17:19 VATSIM:LIEA 291650Z 29004KT 250V330 9999 FEW035 17/10 Q1020
17:19 Land
17:19 Wind:294º@004 Knots
17:19 Heading: 206º
17:19 Flight Duration: 01:15
17:19 Landing Weight: 207961 Lbs
17:19 POS N40º 37´ 45´´ E008º 17´ 20´´
17:21 Parking brakes on
17:21 Block to Block Duration: 01:21
17:21 Final Fuel: 10277 Lbls
17:21 Spent Fuel: 11966 Lbls
17:21 Flight Length: 456 NM
17:21 TOD Land Length: 127 NM

Exportar CSV

Powered by Drupal - Modified by Danger4k